Weather at Estancia Nueva Lubecka Airport

Public forecast

Using degrees Celsius for public forecast. Weather courtesy of forecast.io.

Closest aviation weather report (METAR) to Estancia Nueva Lubecka Airport

Report is more than 6 hours old.

Closest report is Lago Verde Airport, 64.1 nm (118.8 km) W. Retrieved 2015/06/11 01:00 UTC (6 years ago):

SCVE 110100Z AUTO VRB03KT 9999 -RA GEW015 BKN029 OVC034 08/07 Q1033

Closest aviation forecast (TAF) to Estancia Nueva Lubecka Airport

Forecast is more than 12 hours old.

Closest forecast is Brigadier Antonio Parodi Airport, 96.9 nm (179.5 km) NNW. Retrieved 2021-07-25 00:32 UTC (8 days ago):

TAF SAVE 242300Z 2500/2524 VRB05KT 9999 SCT030 BKN060 TX05/2518Z TNM02/2512Z PROB40 TEMPO 2508/2513 BKN015 BECMG 2515/2517 27010KT CAVOK